createdAt,value
2018-05-07T00:01:20.322Z,19.74
2018-05-07T00:03:50.433Z,19.73
2018-05-07T00:06:18.989Z,19.70
2018-05-07T00:08:47.290Z,19.66
2018-05-07T00:11:15.680Z,19.53
2018-05-07T00:13:44.768Z,19.33
2018-05-07T00:16:13.165Z,19.27
2018-05-07T00:18:41.452Z,19.28
2018-05-07T00:21:10.632Z,19.31
2018-05-07T00:23:39.019Z,19.31
2018-05-07T00:26:08.065Z,19.02
2018-05-07T00:28:37.700Z,18.84
2018-05-07T00:31:06.077Z,18.82
2018-05-07T00:33:35.223Z,18.87
2018-05-07T00:36:03.671Z,18.89
2018-05-07T00:38:32.253Z,18.93
2018-05-07T00:41:01.329Z,18.92
2018-05-07T00:43:29.660Z,18.90
2018-05-07T00:45:58.273Z,18.90
2018-05-07T00:48:26.729Z,18.89
2018-05-07T00:50:55.060Z,18.87
2018-05-07T00:53:24.169Z,18.77
2018-05-07T00:55:52.512Z,18.81
2018-05-07T00:58:20.783Z,18.76
2018-05-07T01:00:49.105Z,18.72
2018-05-07T01:03:18.146Z,18.66
2018-05-07T01:05:46.498Z,18.63
2018-05-07T01:08:14.794Z,18.65
2018-05-07T01:10:43.098Z,18.61
2018-05-07T01:13:11.463Z,18.57
2018-05-07T01:15:39.950Z,18.56
2018-05-07T01:18:08.369Z,18.55
2018-05-07T01:20:36.735Z,18.46
2018-05-07T01:23:06.058Z,18.43
2018-05-07T01:25:35.150Z,18.44
2018-05-07T01:28:04.402Z,18.43
2018-05-07T01:30:34.573Z,18.43
2018-05-07T01:33:04.910Z,18.44
2018-05-07T01:35:33.223Z,18.40
2018-05-07T01:38:01.508Z,18.38
2018-05-07T01:40:29.846Z,18.33
2018-05-07T01:42:58.197Z,18.27
2018-05-07T01:45:27.229Z,18.23
2018-05-07T01:47:55.617Z,18.25
2018-05-07T01:50:23.934Z,18.24
2018-05-07T01:52:52.248Z,18.18
2018-05-07T01:55:20.549Z,18.10
2018-05-07T01:57:48.845Z,18.10
2018-05-07T02:00:17.430Z,18.09
2018-05-07T02:02:45.735Z,18.08
2018-05-07T02:05:14.006Z,18.05
2018-05-07T02:07:42.329Z,18.05
2018-05-07T02:10:10.605Z,18.01
2018-05-07T02:12:38.907Z,17.97
2018-05-07T02:15:07.232Z,18.00
2018-05-07T02:17:35.535Z,17.97
2018-05-07T02:20:03.973Z,17.96
2018-05-07T02:22:33.059Z,17.92
2018-05-07T02:25:02.198Z,17.82
2018-05-07T02:27:30.528Z,17.86
2018-05-07T02:29:58.874Z,17.82
2018-05-07T02:32:27.193Z,17.80
2018-05-07T02:34:56.470Z,17.76
2018-05-07T02:37:25.086Z,17.60
2018-05-07T02:39:54.225Z,17.61
2018-05-07T02:42:22.535Z,17.61
2018-05-07T02:44:51.668Z,17.57
2018-05-07T02:47:19.966Z,17.44
2018-05-07T02:49:48.405Z,17.41
2018-05-07T02:52:17.479Z,17.46
2018-05-07T02:54:45.790Z,17.37
2018-05-07T02:57:16.042Z,17.34
2018-05-07T02:59:44.310Z,17.33
2018-05-07T03:02:12.752Z,17.33
2018-05-07T03:04:41.133Z,17.28
2018-05-07T03:07:09.485Z,17.33
2018-05-07T03:09:37.791Z,17.28
2018-05-07T03:12:06.365Z,17.29
2018-05-07T03:14:35.581Z,17.31
2018-05-07T03:17:04.803Z,17.31
2018-05-07T03:19:33.105Z,17.35
2018-05-07T03:22:01.397Z,17.35
2018-05-07T03:24:29.733Z,17.30
2018-05-07T03:26:58.188Z,17.30
2018-05-07T03:29:26.635Z,17.29
2018-05-07T03:31:54.937Z,17.29
2018-05-07T03:34:24.230Z,17.25
2018-05-07T03:36:53.490Z,17.29
2018-05-07T03:39:21.850Z,17.23
2018-05-07T03:41:50.133Z,17.26
2018-05-07T03:44:18.575Z,17.24
2018-05-07T03:46:47.624Z,17.24
2018-05-07T03:49:16.059Z,17.12
2018-05-07T03:51:45.310Z,17.10
2018-05-07T03:54:13.719Z,17.09
2018-05-07T03:56:42.785Z,17.14
2018-05-07T03:59:12.755Z,17.11
2018-05-07T04:01:41.211Z,17.08
2018-05-07T04:04:09.465Z,17.03
2018-05-07T04:06:37.779Z,17.05
2018-05-07T04:09:06.855Z,16.98
2018-05-07T04:11:35.152Z,16.99
2018-05-07T04:14:04.255Z,16.94
2018-05-07T04:16:50.074Z,16.91
2018-05-07T04:22:44.468Z,16.82
2018-05-07T04:25:12.770Z,16.93
2018-05-07T04:27:41.105Z,16.92
2018-05-07T04:30:09.424Z,16.95
2018-05-07T04:32:37.800Z,16.99
2018-05-07T04:35:06.190Z,17.00
2018-05-07T04:37:34.485Z,17.08
2018-05-07T04:40:02.811Z,17.03
2018-05-07T04:42:31.098Z,16.85
2018-05-07T04:44:59.416Z,16.91
2018-05-07T04:47:27.694Z,16.97
2018-05-07T04:49:55.986Z,17.08
2018-05-07T04:52:25.070Z,17.03
2018-05-07T04:54:54.136Z,17.05
2018-05-07T04:57:22.453Z,17.07
2018-05-07T04:59:51.664Z,17.13
2018-05-07T05:02:19.994Z,17.15
2018-05-07T05:04:48.620Z,17.16
2018-05-07T05:07:17.065Z,17.25
2018-05-07T05:09:46.194Z,17.31
2018-05-07T05:12:15.294Z,17.30
2018-05-07T05:14:44.531Z,17.28
2018-05-07T05:17:12.925Z,17.28
2018-05-07T05:19:41.288Z,17.29
2018-05-07T05:22:09.597Z,17.38
2018-05-07T05:24:37.903Z,17.51
2018-05-07T05:27:06.255Z,17.55
2018-05-07T05:29:35.438Z,17.63
2018-05-07T05:32:03.724Z,17.67
2018-05-07T05:34:32.041Z,17.73
2018-05-07T05:37:00.324Z,17.75
2018-05-07T05:39:28.746Z,17.82
2018-05-07T05:41:57.714Z,17.85
2018-05-07T05:44:26.036Z,17.96
2018-05-07T05:46:55.126Z,18.03
2018-05-07T05:49:23.429Z,18.05
2018-05-07T05:51:51.740Z,18.07
2018-05-07T05:54:20.120Z,18.10
2018-05-07T05:56:48.514Z,18.09
2018-05-07T05:59:16.837Z,18.12
2018-05-07T06:01:45.380Z,18.27
2018-05-07T06:04:13.797Z,18.39
2018-05-07T06:06:42.130Z,18.46
2018-05-07T06:09:11.762Z,18.51
2018-05-07T06:11:40.140Z,18.52
2018-05-07T06:14:09.595Z,18.58
2018-05-07T06:16:37.925Z,18.68
2018-05-07T06:19:06.215Z,18.67
2018-05-07T06:21:35.406Z,18.78
2018-05-07T06:24:04.639Z,18.88
2018-05-07T06:26:32.944Z,18.87
2018-05-07T06:29:01.234Z,18.94
2018-05-07T06:31:29.664Z,19.00
2018-05-07T06:33:58.096Z,19.00
2018-05-07T06:36:26.684Z,19.10
2018-05-07T06:38:56.189Z,19.20
2018-05-07T06:41:24.716Z,19.27
2018-05-07T06:43:53.116Z,19.30
2018-05-07T06:46:21.516Z,19.35
2018-05-07T06:48:49.921Z,19.41
2018-05-07T06:51:19.023Z,19.42
2018-05-07T06:53:48.076Z,19.52
2018-05-07T06:56:16.350Z,19.62
2018-05-07T06:58:45.800Z,19.58
2018-05-07T07:01:15.046Z,19.68
2018-05-07T07:03:43.480Z,19.79
2018-05-07T07:06:12.785Z,19.85
2018-05-07T07:08:42.000Z,19.86
2018-05-07T07:11:10.216Z,19.95
2018-05-07T07:13:38.580Z,20.02
2018-05-07T07:16:06.889Z,20.14
2018-05-07T07:18:35.316Z,20.22
2018-05-07T07:21:03.606Z,20.17
2018-05-07T07:23:32.095Z,20.26
2018-05-07T07:26:00.461Z,20.39
2018-05-07T07:28:28.904Z,20.41
2018-05-07T07:30:58.012Z,20.47
2018-05-07T07:33:26.383Z,20.58
2018-05-07T07:35:54.669Z,20.64
2018-05-07T07:38:23.141Z,20.72
2018-05-07T07:40:53.458Z,20.82
2018-05-07T07:43:22.672Z,20.97
2018-05-07T07:45:51.189Z,21.01
2018-05-07T07:48:19.462Z,21.05
2018-05-07T07:50:47.789Z,21.11
2018-05-07T07:53:17.660Z,21.18
2018-05-07T07:55:46.085Z,21.22
2018-05-07T07:58:15.342Z,21.24
2018-05-07T08:00:43.721Z,21.32
2018-05-07T08:03:12.109Z,21.28
2018-05-07T08:05:40.426Z,21.31
2018-05-07T08:08:09.011Z,21.43
2018-05-07T08:10:38.444Z,21.45
2018-05-07T08:13:09.038Z,21.57
2018-05-07T08:15:39.058Z,21.76
2018-05-07T08:18:09.265Z,21.85
2018-05-07T08:20:37.694Z,21.89
2018-05-07T08:23:05.978Z,21.84
2018-05-07T08:25:34.287Z,21.90
2018-05-07T08:28:02.731Z,21.89
2018-05-07T08:30:31.364Z,21.98
2018-05-07T08:33:00.511Z,22.07
2018-05-07T08:35:28.902Z,22.15
2018-05-07T08:37:57.217Z,22.19
2018-05-07T08:40:26.298Z,22.28
2018-05-07T08:42:54.643Z,22.30
2018-05-07T08:45:22.957Z,22.38
2018-05-07T08:47:51.266Z,22.52
2018-05-07T08:50:19.612Z,22.56
2018-05-07T08:52:48.761Z,22.59
2018-05-07T08:55:17.048Z,22.54
2018-05-07T08:57:45.335Z,22.52
2018-05-07T09:00:13.696Z,22.56
2018-05-07T09:02:42.131Z,22.67
2018-05-07T09:05:10.596Z,22.76
2018-05-07T09:07:39.931Z,22.89
2018-05-07T09:10:08.271Z,22.97
2018-05-07T09:12:36.556Z,22.92
2018-05-07T09:15:04.910Z,22.92
2018-05-07T09:17:33.308Z,23.02
2018-05-07T09:20:01.902Z,23.18
2018-05-07T09:22:31.005Z,23.13
2018-05-07T09:25:00.128Z,23.20
2018-05-07T09:27:28.397Z,23.28
2018-05-07T09:29:56.755Z,23.39
2018-05-07T09:32:25.312Z,23.41
2018-05-07T09:34:53.812Z,23.51
2018-05-07T09:37:22.913Z,23.57
2018-05-07T09:39:51.239Z,23.68
2018-05-07T09:42:19.636Z,23.71
2018-05-07T09:44:48.083Z,23.71
2018-05-07T09:47:16.415Z,23.82
2018-05-07T09:49:45.626Z,23.83
2018-05-07T09:52:14.135Z,23.83
2018-05-07T09:54:42.462Z,23.88
2018-05-07T09:57:10.958Z,23.91
2018-05-07T09:59:40.177Z,23.86
2018-05-07T10:02:08.498Z,23.86
2018-05-07T10:04:36.853Z,23.93
2018-05-07T10:07:05.256Z,23.96
2018-05-07T10:09:34.002Z,24.05
2018-05-07T10:12:02.389Z,24.06
2018-05-07T10:14:30.705Z,24.14
2018-05-07T10:17:00.255Z,24.17
2018-05-07T10:19:28.766Z,24.23
2018-05-07T10:21:57.255Z,24.28
2018-05-07T10:24:25.556Z,24.30
2018-05-07T10:26:54.226Z,24.25
2018-05-07T10:29:22.609Z,24.31
2018-05-07T10:31:51.165Z,24.37
2018-05-07T10:34:19.474Z,24.49
2018-05-07T10:36:47.805Z,24.58
2018-05-07T10:39:16.415Z,24.62
2018-05-07T10:41:44.907Z,24.65
2018-05-07T10:44:13.320Z,24.70
2018-05-07T10:46:43.576Z,24.68
2018-05-07T10:49:11.976Z,24.74
2018-05-07T10:51:40.441Z,24.76
2018-05-07T10:54:08.840Z,24.85
2018-05-07T10:56:37.358Z,24.89
2018-05-07T10:59:05.704Z,25.08
2018-05-07T11:01:34.104Z,25.04
2018-05-07T11:04:03.140Z,25.12
2018-05-07T11:06:31.496Z,25.19
2018-05-07T11:09:00.547Z,25.26
2018-05-07T11:11:28.906Z,25.32
2018-05-07T11:13:57.203Z,25.38
2018-05-07T11:16:25.541Z,25.46
2018-05-07T11:18:54.631Z,25.53
2018-05-07T11:21:23.761Z,25.57
2018-05-07T11:23:52.087Z,25.61
2018-05-07T11:26:20.362Z,25.69
2018-05-07T11:28:48.699Z,25.78
2018-05-07T11:31:17.047Z,25.96
2018-05-07T11:33:46.016Z,25.97
2018-05-07T11:36:15.136Z,26.01
2018-05-07T11:38:43.662Z,26.05
2018-05-07T11:41:11.951Z,26.18
2018-05-07T11:43:40.287Z,26.33
2018-05-07T11:46:08.602Z,26.36
2018-05-07T11:48:36.991Z,26.38
2018-05-07T11:51:05.537Z,26.46
2018-05-07T11:53:33.865Z,26.54
2018-05-07T11:56:02.240Z,26.64
2018-05-07T11:58:31.361Z,26.72
2018-05-07T12:00:59.725Z,26.80
2018-05-07T12:03:28.377Z,26.87
2018-05-07T12:05:56.902Z,27.00
2018-05-07T12:08:25.236Z,27.08
2018-05-07T12:10:53.796Z,27.17
2018-05-07T12:13:22.995Z,27.29
2018-05-07T12:15:52.719Z,27.32
2018-05-07T12:18:23.048Z,27.42
2018-05-07T12:20:52.789Z,27.58
2018-05-07T12:23:23.004Z,27.72
2018-05-07T12:25:51.362Z,27.88
2018-05-07T12:28:19.970Z,27.98
2018-05-07T12:30:49.043Z,28.00
2018-05-07T12:33:17.413Z,28.03
2018-05-07T12:35:45.831Z,28.04
2018-05-07T12:38:14.916Z,28.17
2018-05-07T12:40:44.033Z,28.38
2018-05-07T12:43:12.349Z,28.40
2018-05-07T12:45:40.666Z,28.51
2018-05-07T12:48:09.737Z,28.63
2018-05-07T12:50:38.193Z,28.76
2018-05-07T12:53:06.562Z,28.90
2018-05-07T12:55:34.971Z,28.95
2018-05-07T12:58:03.381Z,28.91
2018-05-07T13:00:32.636Z,28.95
2018-05-07T13:03:01.173Z,29.01
2018-05-07T13:05:30.289Z,28.97
2018-05-07T13:07:58.718Z,29.03
2018-05-07T13:10:27.017Z,29.10
2018-05-07T13:12:55.417Z,29.12
2018-05-07T13:15:24.477Z,29.09
2018-05-07T13:17:52.856Z,29.13
2018-05-07T13:20:21.213Z,29.25
2018-05-07T13:22:49.543Z,29.29
2018-05-07T13:25:19.617Z,29.41
2018-05-07T13:27:47.943Z,29.50
2018-05-07T13:30:16.435Z,29.57
2018-05-07T13:32:44.901Z,29.73
2018-05-07T13:35:13.327Z,29.88
2018-05-07T13:37:41.649Z,29.84
2018-05-07T13:40:10.869Z,29.86
2018-05-07T13:42:39.182Z,29.92
2018-05-07T13:45:07.624Z,30.07
2018-05-07T13:47:36.043Z,30.24
2018-05-07T13:50:04.437Z,30.28
2018-05-07T13:52:33.541Z,30.22
2018-05-07T13:55:02.751Z,30.33
2018-05-07T13:57:31.975Z,30.44
2018-05-07T14:00:00.516Z,30.56
2018-05-07T14:02:28.841Z,30.57
2018-05-07T14:04:57.179Z,30.61
2018-05-07T14:07:26.428Z,30.57
2018-05-07T14:09:54.967Z,30.64
2018-05-07T14:12:24.056Z,30.79
2018-05-07T14:14:53.192Z,30.82
2018-05-07T14:17:21.543Z,30.85
2018-05-07T14:19:50.666Z,30.92
2018-05-07T14:22:18.993Z,31.08
2018-05-07T14:24:47.392Z,31.20
2018-05-07T14:27:17.632Z,31.28
2018-05-07T14:29:45.973Z,31.28
2018-05-07T14:32:15.216Z,31.40
2018-05-07T14:34:43.543Z,31.56
2018-05-07T14:37:11.911Z,31.61
2018-05-07T14:39:40.315Z,31.65
2018-05-07T14:42:09.571Z,31.74
2018-05-07T14:44:38.148Z,31.85
2018-05-07T14:47:06.586Z,32.00
2018-05-07T14:49:35.764Z,31.94
2018-05-07T14:52:04.177Z,31.93
2018-05-07T14:54:32.624Z,31.98
2018-05-07T14:57:01.039Z,32.04
2018-05-07T14:59:29.496Z,32.15
2018-05-07T15:01:58.626Z,32.25
2018-05-07T15:04:27.008Z,32.04
2018-05-07T15:06:55.311Z,31.70
2018-05-07T15:09:24.442Z,31.58
2018-05-07T15:11:53.674Z,31.50
2018-05-07T15:14:25.247Z,31.45
2018-05-07T15:16:53.818Z,31.10
2018-05-07T15:19:22.127Z,31.05
2018-05-07T15:21:50.688Z,31.17
2018-05-07T15:24:19.145Z,31.44
2018-05-07T15:26:47.487Z,31.60
2018-05-07T15:29:15.975Z,31.74
2018-05-07T15:31:45.898Z,31.87
2018-05-07T15:34:16.238Z,31.91
2018-05-07T15:36:45.650Z,31.90
2018-05-07T15:39:14.022Z,32.17
2018-05-07T15:41:42.380Z,32.00
2018-05-07T15:44:11.514Z,32.92
2018-05-07T15:46:39.817Z,33.19
2018-05-07T15:49:08.189Z,34.49
2018-05-07T15:51:36.553Z,35.34
2018-05-07T15:54:04.878Z,35.50
2018-05-07T15:56:33.211Z,36.63
2018-05-07T15:59:01.553Z,37.34
2018-05-07T16:01:29.914Z,37.21
2018-05-07T16:03:59.254Z,37.07
2018-05-07T16:06:27.726Z,38.19
2018-05-07T16:08:56.173Z,39.16
2018-05-07T16:11:25.871Z,39.24
2018-05-07T16:13:54.146Z,39.21
2018-05-07T16:16:22.521Z,39.42
2018-05-07T16:18:50.886Z,38.13
2018-05-07T16:21:19.230Z,38.25
2018-05-07T16:23:47.720Z,38.34
2018-05-07T16:26:16.079Z,38.01
2018-05-07T16:28:44.637Z,37.55
2018-05-07T16:31:13.857Z,37.83
2018-05-07T16:33:42.113Z,37.51
2018-05-07T16:36:11.437Z,38.21
2018-05-07T16:38:39.877Z,38.99
2018-05-07T16:41:08.290Z,39.09
2018-05-07T16:43:36.813Z,38.79
2018-05-07T16:46:05.190Z,38.44
2018-05-07T16:48:33.666Z,38.19
2018-05-07T16:51:01.962Z,37.60
2018-05-07T16:53:30.373Z,37.94
2018-05-07T16:55:59.511Z,38.77
2018-05-07T16:58:27.904Z,38.99
2018-05-07T17:00:56.273Z,39.30
2018-05-07T17:03:24.917Z,38.50
2018-05-07T17:05:54.068Z,37.83
2018-05-07T17:08:22.610Z,37.93
2018-05-07T17:10:50.899Z,38.32
2018-05-07T17:13:19.301Z,38.31
2018-05-07T17:15:47.749Z,37.91
2018-05-07T17:18:16.378Z,38.20
2018-05-07T17:20:44.695Z,38.23
2018-05-07T17:23:13.858Z,38.02
2018-05-07T17:25:42.203Z,37.37
2018-05-07T17:28:10.653Z,37.40
2018-05-07T17:30:39.763Z,37.01
2018-05-07T17:33:08.074Z,36.44
2018-05-07T17:35:36.484Z,36.02
2018-05-07T17:38:05.015Z,35.88
2018-05-07T17:40:33.445Z,36.33
2018-05-07T17:43:03.745Z,36.20
2018-05-07T17:48:56.908Z,36.02
2018-05-07T17:51:26.010Z,35.59
2018-05-07T17:53:54.429Z,35.67
2018-05-07T17:56:22.823Z,35.67
2018-05-07T17:58:52.063Z,35.25
2018-05-07T18:01:20.394Z,34.83
2018-05-07T18:03:48.722Z,33.44
2018-05-07T18:06:17.092Z,32.00
2018-05-07T18:08:45.458Z,30.83
2018-05-07T18:11:13.796Z,29.86
2018-05-07T18:13:43.108Z,28.99
2018-05-07T18:16:11.475Z,28.51
2018-05-07T18:18:40.614Z,28.13
2018-05-07T18:21:08.990Z,27.83
2018-05-07T18:23:37.505Z,27.53
2018-05-07T18:26:05.871Z,27.25
2018-05-07T18:28:34.636Z,26.94
2018-05-07T18:31:02.969Z,26.87
2018-05-07T18:33:32.191Z,26.78
2018-05-07T18:36:00.676Z,26.64
2018-05-07T18:38:29.054Z,26.62
2018-05-07T18:40:58.568Z,26.54
2018-05-07T18:43:27.057Z,26.43
2018-05-07T18:45:55.393Z,26.31
2018-05-07T18:48:23.768Z,26.15
2018-05-07T18:50:52.369Z,26.00
2018-05-07T18:53:20.879Z,26.00
2018-05-07T18:55:49.395Z,25.96
2018-05-07T18:58:17.850Z,25.93
2018-05-07T19:00:46.391Z,25.81
2018-05-07T19:03:14.894Z,25.82
2018-05-07T19:05:43.285Z,25.71
2018-05-07T19:08:11.717Z,25.60
2018-05-07T19:10:41.093Z,25.61
2018-05-07T19:13:09.576Z,25.47
2018-05-07T19:15:38.932Z,25.47
2018-05-07T19:18:07.364Z,25.39
2018-05-07T19:20:36.796Z,25.38
2018-05-07T19:23:05.143Z,25.36
2018-05-07T19:25:34.291Z,25.30
2018-05-07T19:28:02.644Z,25.29
2018-05-07T19:30:30.971Z,25.27
2018-05-07T19:32:59.411Z,25.28
2018-05-07T19:35:27.791Z,25.17
2018-05-07T19:37:56.109Z,25.04
2018-05-07T19:40:24.479Z,24.96
2018-05-07T19:42:52.857Z,24.85
2018-05-07T19:45:21.297Z,24.79
2018-05-07T19:47:49.817Z,24.66
2018-05-07T19:50:18.236Z,24.65
2018-05-07T19:52:47.451Z,24.48
2018-05-07T19:55:16.061Z,24.43
2018-05-07T19:57:44.627Z,24.37
2018-05-07T20:00:13.183Z,24.27
2018-05-07T20:02:42.444Z,24.20
2018-05-07T20:05:10.881Z,24.15
2018-05-07T20:07:39.224Z,24.06
2018-05-07T20:10:08.348Z,24.07
2018-05-07T20:12:36.784Z,23.96
2018-05-07T20:15:05.204Z,23.87
2018-05-07T20:17:33.696Z,23.79
2018-05-07T20:20:02.279Z,23.72
2018-05-07T20:22:30.671Z,23.72
2018-05-07T20:24:59.106Z,23.70
2018-05-07T20:27:28.204Z,23.64
2018-05-07T20:29:57.365Z,23.66
2018-05-07T20:32:25.725Z,23.59
2018-05-07T20:34:54.209Z,23.62
2018-05-07T20:37:22.761Z,23.54
2018-05-07T20:39:51.978Z,23.56
2018-05-07T20:42:20.365Z,23.46
2018-05-07T20:44:48.694Z,23.48
2018-05-07T20:47:16.997Z,23.30
2018-05-07T20:49:45.373Z,23.15
2018-05-07T20:52:14.254Z,23.21
2018-05-07T20:54:43.429Z,23.12
2018-05-07T20:57:12.629Z,22.95
2018-05-07T20:59:41.828Z,22.98
2018-05-07T21:02:10.149Z,22.99
2018-05-07T21:04:38.498Z,23.03
2018-05-07T21:07:07.638Z,22.97
2018-05-07T21:09:36.141Z,23.08
2018-05-07T21:12:04.455Z,23.07
2018-05-07T21:14:33.568Z,23.08
2018-05-07T21:17:01.939Z,23.06
2018-05-07T21:19:30.310Z,23.13
2018-05-07T21:21:59.591Z,23.21
2018-05-07T21:24:28.719Z,23.05
2018-05-07T21:26:57.948Z,23.00
2018-05-07T21:29:26.489Z,22.92
2018-05-07T21:31:55.699Z,22.93
2018-05-07T21:34:24.045Z,22.83
2018-05-07T21:36:52.568Z,22.77
2018-05-07T21:39:21.080Z,22.68
2018-05-07T21:41:49.409Z,22.59
2018-05-07T21:44:18.485Z,22.66
2018-05-07T21:46:46.788Z,22.71
2018-05-07T21:49:15.193Z,22.66
2018-05-07T21:51:43.874Z,22.56
2018-05-07T21:54:12.213Z,22.46
2018-05-07T21:56:41.348Z,22.18
2018-05-07T21:59:09.658Z,22.10
2018-05-07T22:01:38.206Z,22.10
2018-05-07T22:04:06.553Z,22.11
2018-05-07T22:06:35.668Z,22.08
2018-05-07T22:09:04.213Z,22.05
2018-05-07T22:11:32.553Z,22.11
2018-05-07T22:14:00.933Z,22.12
2018-05-07T22:16:29.309Z,22.17
2018-05-07T22:18:57.864Z,22.23
2018-05-07T22:21:26.172Z,22.21
2018-05-07T22:23:54.715Z,22.19
2018-05-07T22:26:23.879Z,22.23
2018-05-07T22:28:52.303Z,22.21
2018-05-07T22:31:20.648Z,22.23
2018-05-07T22:33:49.710Z,22.24
2018-05-07T22:36:18.190Z,22.16
2018-05-07T22:38:46.553Z,22.09
2018-05-07T22:41:14.905Z,22.06
2018-05-07T22:43:44.718Z,22.02
2018-05-07T22:46:13.035Z,21.89
2018-05-07T22:48:41.386Z,21.83
2018-05-07T22:51:09.692Z,21.72
2018-05-07T22:53:38.004Z,21.67
2018-05-07T22:56:07.092Z,21.60
2018-05-07T22:58:35.411Z,21.60
2018-05-07T23:01:03.833Z,21.55
2018-05-07T23:03:32.168Z,21.58
2018-05-07T23:06:00.558Z,21.48
2018-05-07T23:08:28.919Z,21.47
2018-05-07T23:10:57.369Z,21.44
2018-05-07T23:13:27.532Z,21.36
2018-05-07T23:15:56.112Z,21.30
2018-05-07T23:18:24.415Z,21.23
2018-05-07T23:20:52.673Z,21.22
2018-05-07T23:23:21.054Z,21.27
2018-05-07T23:25:49.586Z,21.27
2018-05-07T23:28:17.989Z,21.19
2018-05-07T23:30:46.442Z,21.20
2018-05-07T23:33:14.771Z,21.22
2018-05-07T23:35:43.068Z,21.14
2018-05-07T23:38:11.374Z,21.12
2018-05-07T23:40:40.519Z,21.09
2018-05-07T23:43:09.803Z,21.09
2018-05-07T23:45:38.198Z,21.10
2018-05-07T23:48:06.677Z,21.08
2018-05-07T23:50:35.013Z,21.08
2018-05-07T23:53:04.263Z,20.89
2018-05-07T23:55:32.617Z,21.05
2018-05-07T23:58:00.933Z,21.03
